sensor_id;sensor_type;location;lat;lon;timestamp;P1;durP1;ratioP1;P2;durP2;ratioP2
4422;SDS011;2224;49.814;8.650;2023-03-01T00:01:00;15.80;;;11.80;;
4422;SDS011;2224;49.814;8.650;2023-03-01T00:03:32;15.38;;;11.70;;
4422;SDS011;2224;49.814;8.650;2023-03-01T00:05:58;17.23;;;12.77;;
4422;SDS011;2224;49.814;8.650;2023-03-01T00:08:24;14.70;;;12.60;;
4422;SDS011;2224;49.814;8.650;2023-03-01T00:10:59;21.07;;;14.10;;
4422;SDS011;2224;49.814;8.650;2023-03-01T00:13:28;18.38;;;13.82;;
4422;SDS011;2224;49.814;8.650;2023-03-01T00:15:53;18.37;;;13.77;;
4422;SDS011;2224;49.814;8.650;2023-03-01T00:18:18;14.73;;;12.80;;
4422;SDS011;2224;49.814;8.650;2023-03-01T00:20:50;21.30;;;14.90;;
4422;SDS011;2224;49.814;8.650;2023-03-01T00:23:16;17.27;;;12.45;;
4422;SDS011;2224;49.814;8.650;2023-03-01T00:25:42;18.30;;;14.53;;
4422;SDS011;2224;49.814;8.650;2023-03-01T00:28:08;21.93;;;13.70;;
4422;SDS011;2224;49.814;8.650;2023-03-01T00:30:33;19.80;;;13.60;;
4422;SDS011;2224;49.814;8.650;2023-03-01T00:32:58;18.10;;;13.73;;
4422;SDS011;2224;49.814;8.650;2023-03-01T00:35:23;20.97;;;13.07;;
4422;SDS011;2224;49.814;8.650;2023-03-01T00:37:49;16.00;;;13.00;;
4422;SDS011;2224;49.814;8.650;2023-03-01T00:40:22;17.15;;;12.73;;
4422;SDS011;2224;49.814;8.650;2023-03-01T00:42:51;16.35;;;11.88;;
4422;SDS011;2224;49.814;8.650;2023-03-01T00:45:16;17.87;;;13.90;;
4422;SDS011;2224;49.814;8.650;2023-03-01T00:47:42;18.03;;;13.17;;
4422;SDS011;2224;49.814;8.650;2023-03-01T00:50:08;15.60;;;12.87;;
4422;SDS011;2224;49.814;8.650;2023-03-01T00:52:34;17.97;;;14.10;;
4422;SDS011;2224;49.814;8.650;2023-03-01T00:54:59;19.97;;;13.43;;
4422;SDS011;2224;49.814;8.650;2023-03-01T00:57:24;19.70;;;13.57;;
4422;SDS011;2224;49.814;8.650;2023-03-01T00:59:50;15.63;;;12.50;;
4422;SDS011;2224;49.814;8.650;2023-03-01T01:02:17;20.70;;;12.68;;
4422;SDS011;2224;49.814;8.650;2023-03-01T01:04:43;16.88;;;13.50;;
4422;SDS011;2224;49.814;8.650;2023-03-01T01:07:08;18.97;;;13.80;;
4422;SDS011;2224;49.814;8.650;2023-03-01T01:09:33;19.90;;;13.13;;
4422;SDS011;2224;49.814;8.650;2023-03-01T01:11:59;16.33;;;13.03;;
4422;SDS011;2224;49.814;8.650;2023-03-01T01:14:24;15.20;;;12.40;;
4422;SDS011;2224;49.814;8.650;2023-03-01T01:16:49;18.07;;;12.90;;
4422;SDS011;2224;49.814;8.650;2023-03-01T01:19:15;16.20;;;12.70;;
4422;SDS011;2224;49.814;8.650;2023-03-01T01:21:40;17.30;;;12.97;;
4422;SDS011;2224;49.814;8.650;2023-03-01T01:24:08;18.80;;;12.50;;
4422;SDS011;2224;49.814;8.650;2023-03-01T01:26:34;19.73;;;14.50;;
4422;SDS011;2224;49.814;8.650;2023-03-01T01:29:00;17.30;;;12.80;;
4422;SDS011;2224;49.814;8.650;2023-03-01T01:31:26;19.92;;;14.30;;
4422;SDS011;2224;49.814;8.650;2023-03-01T01:33:53;18.05;;;13.48;;
4422;SDS011;2224;49.814;8.650;2023-03-01T01:36:20;18.05;;;14.02;;
4422;SDS011;2224;49.814;8.650;2023-03-01T01:38:46;22.37;;;13.63;;
4422;SDS011;2224;49.814;8.650;2023-03-01T01:41:11;17.67;;;13.70;;
4422;SDS011;2224;49.814;8.650;2023-03-01T01:43:40;19.85;;;13.50;;
4422;SDS011;2224;49.814;8.650;2023-03-01T01:46:19;18.48;;;12.93;;
4422;SDS011;2224;49.814;8.650;2023-03-01T01:48:54;17.00;;;13.52;;
4422;SDS011;2224;49.814;8.650;2023-03-01T01:51:25;18.52;;;13.30;;
4422;SDS011;2224;49.814;8.650;2023-03-01T01:53:53;16.30;;;13.43;;
4422;SDS011;2224;49.814;8.650;2023-03-01T01:56:21;17.27;;;13.93;;
4422;SDS011;2224;49.814;8.650;2023-03-01T01:58:48;18.92;;;14.10;;
4422;SDS011;2224;49.814;8.650;2023-03-01T02:01:13;20.23;;;14.40;;
4422;SDS011;2224;49.814;8.650;2023-03-01T02:03:39;21.60;;;14.83;;
4422;SDS011;2224;49.814;8.650;2023-03-01T02:06:21;21.23;;;14.82;;
4422;SDS011;2224;49.814;8.650;2023-03-01T02:08:54;19.10;;;14.00;;
4422;SDS011;2224;49.814;8.650;2023-03-01T02:11:20;23.42;;;15.18;;
4422;SDS011;2224;49.814;8.650;2023-03-01T02:13:46;18.10;;;14.40;;
4422;SDS011;2224;49.814;8.650;2023-03-01T02:16:13;18.02;;;13.05;;
4422;SDS011;2224;49.814;8.650;2023-03-01T02:18:40;22.52;;;14.32;;
4422;SDS011;2224;49.814;8.650;2023-03-01T02:21:16;19.23;;;13.55;;
4422;SDS011;2224;49.814;8.650;2023-03-01T02:23:45;18.42;;;13.85;;
4422;SDS011;2224;49.814;8.650;2023-03-01T02:26:12;19.70;;;13.80;;
4422;SDS011;2224;49.814;8.650;2023-03-01T02:28:49;17.70;;;14.52;;
4422;SDS011;2224;49.814;8.650;2023-03-01T02:31:16;17.80;;;13.20;;
4422;SDS011;2224;49.814;8.650;2023-03-01T02:34:01;17.50;;;14.35;;
4422;SDS011;2224;49.814;8.650;2023-03-01T02:36:38;19.67;;;14.00;;
4422;SDS011;2224;49.814;8.650;2023-03-01T02:39:05;19.55;;;13.30;;
4422;SDS011;2224;49.814;8.650;2023-03-01T02:41:36;20.05;;;13.60;;
4422;SDS011;2224;49.814;8.650;2023-03-01T02:44:03;19.23;;;15.68;;
4422;SDS011;2224;49.814;8.650;2023-03-01T02:46:29;22.42;;;14.10;;
4422;SDS011;2224;49.814;8.650;2023-03-01T02:48:55;20.30;;;14.27;;
4422;SDS011;2224;49.814;8.650;2023-03-01T02:53:56;24.33;;;15.65;;
4422;SDS011;2224;49.814;8.650;2023-03-01T02:56:32;19.02;;;13.88;;
4422;SDS011;2224;49.814;8.650;2023-03-01T02:58:58;20.20;;;14.73;;
4422;SDS011;2224;49.814;8.650;2023-03-01T03:01:26;21.92;;;15.27;;
4422;SDS011;2224;49.814;8.650;2023-03-01T03:04:01;21.27;;;14.52;;
4422;SDS011;2224;49.814;8.650;2023-03-01T03:06:26;18.93;;;13.63;;
4422;SDS011;2224;49.814;8.650;2023-03-01T03:08:51;19.30;;;15.20;;
4422;SDS011;2224;49.814;8.650;2023-03-01T03:11:17;21.97;;;15.10;;
4422;SDS011;2224;49.814;8.650;2023-03-01T03:13:42;20.77;;;14.10;;
4422;SDS011;2224;49.814;8.650;2023-03-01T03:16:12;20.30;;;14.15;;
4422;SDS011;2224;49.814;8.650;2023-03-01T03:18:38;22.97;;;14.20;;
4422;SDS011;2224;49.814;8.650;2023-03-01T03:21:03;19.40;;;14.20;;
4422;SDS011;2224;49.814;8.650;2023-03-01T03:23:35;20.80;;;13.82;;
4422;SDS011;2224;49.814;8.650;2023-03-01T03:26:01;19.80;;;14.70;;
4422;SDS011;2224;49.814;8.650;2023-03-01T03:28:27;19.67;;;14.70;;
4422;SDS011;2224;49.814;8.650;2023-03-01T03:30:52;20.10;;;14.80;;
4422;SDS011;2224;49.814;8.650;2023-03-01T03:33:17;20.43;;;14.60;;
4422;SDS011;2224;49.814;8.650;2023-03-01T03:35:44;18.33;;;13.40;;
4422;SDS011;2224;49.814;8.650;2023-03-01T03:38:11;21.60;;;14.40;;
4422;SDS011;2224;49.814;8.650;2023-03-01T03:40:51;19.40;;;13.75;;
4422;SDS011;2224;49.814;8.650;2023-03-01T03:43:26;18.60;;;13.90;;
4422;SDS011;2224;49.814;8.650;2023-03-01T03:45:51;21.80;;;15.27;;
4422;SDS011;2224;49.814;8.650;2023-03-01T03:48:17;18.33;;;13.43;;
4422;SDS011;2224;49.814;8.650;2023-03-01T03:50:47;22.23;;;14.93;;
4422;SDS011;2224;49.814;8.650;2023-03-01T03:53:14;19.98;;;14.52;;
4422;SDS011;2224;49.814;8.650;2023-03-01T03:55:39;19.70;;;14.40;;
4422;SDS011;2224;49.814;8.650;2023-03-01T03:58:06;21.60;;;15.37;;
4422;SDS011;2224;49.814;8.650;2023-03-01T04:00:33;21.30;;;14.77;;
4422;SDS011;2224;49.814;8.650;2023-03-01T04:03:00;21.27;;;15.70;;
4422;SDS011;2224;49.814;8.650;2023-03-01T04:05:26;21.90;;;15.53;;
4422;SDS011;2224;49.814;8.650;2023-03-01T04:07:51;21.50;;;15.00;;
4422;SDS011;2224;49.814;8.650;2023-03-01T04:10:26;20.50;;;15.05;;
4422;SDS011;2224;49.814;8.650;2023-03-01T04:12:52;20.88;;;14.80;;
4422;SDS011;2224;49.814;8.650;2023-03-01T04:15:17;20.27;;;14.43;;
4422;SDS011;2224;49.814;8.650;2023-03-01T04:17:44;18.40;;;14.13;;
4422;SDS011;2224;49.814;8.650;2023-03-01T04:20:11;16.98;;;13.52;;
4422;SDS011;2224;49.814;8.650;2023-03-01T04:22:42;21.88;;;15.00;;
4422;SDS011;2224;49.814;8.650;2023-03-01T04:25:08;22.13;;;15.10;;
4422;SDS011;2224;49.814;8.650;2023-03-01T04:27:34;25.58;;;16.67;;
4422;SDS011;2224;49.814;8.650;2023-03-01T04:30:00;21.57;;;14.43;;
4422;SDS011;2224;49.814;8.650;2023-03-01T04:32:26;17.73;;;14.60;;
4422;SDS011;2224;49.814;8.650;2023-03-01T04:34:51;20.07;;;14.90;;
4422;SDS011;2224;49.814;8.650;2023-03-01T04:37:16;22.00;;;15.10;;
4422;SDS011;2224;49.814;8.650;2023-03-01T04:39:42;19.00;;;14.20;;
4422;SDS011;2224;49.814;8.650;2023-03-01T04:42:10;22.27;;;14.65;;
4422;SDS011;2224;49.814;8.650;2023-03-01T04:44:44;21.20;;;15.52;;
4422;SDS011;2224;49.814;8.650;2023-03-01T04:47:10;20.20;;;15.73;;
4422;SDS011;2224;49.814;8.650;2023-03-01T04:49:36;22.75;;;15.63;;
4422;SDS011;2224;49.814;8.650;2023-03-01T04:52:02;20.53;;;14.63;;
4422;SDS011;2224;49.814;8.650;2023-03-01T04:54:28;23.33;;;16.17;;
4422;SDS011;2224;49.814;8.650;2023-03-01T04:56:54;17.95;;;14.52;;
4422;SDS011;2224;49.814;8.650;2023-03-01T04:59:19;20.30;;;14.87;;
4422;SDS011;2224;49.814;8.650;2023-03-01T05:01:47;21.60;;;14.73;;
4422;SDS011;2224;49.814;8.650;2023-03-01T05:04:13;20.58;;;15.05;;
4422;SDS011;2224;49.814;8.650;2023-03-01T05:06:38;24.30;;;16.50;;
4422;SDS011;2224;49.814;8.650;2023-03-01T05:09:04;24.13;;;15.90;;
4422;SDS011;2224;49.814;8.650;2023-03-01T05:11:30;21.47;;;14.27;;
4422;SDS011;2224;49.814;8.650;2023-03-01T05:13:58;22.73;;;15.68;;
4422;SDS011;2224;49.814;8.650;2023-03-01T05:16:24;22.10;;;16.00;;
4422;SDS011;2224;49.814;8.650;2023-03-01T05:18:49;24.17;;;15.63;;
4422;SDS011;2224;49.814;8.650;2023-03-01T05:21:16;22.33;;;15.20;;
4422;SDS011;2224;49.814;8.650;2023-03-01T05:23:41;20.35;;;15.30;;
4422;SDS011;2224;49.814;8.650;2023-03-01T05:26:07;22.20;;;16.10;;
4422;SDS011;2224;49.814;8.650;2023-03-01T05:28:33;21.60;;;15.43;;
4422;SDS011;2224;49.814;8.650;2023-03-01T05:30:58;21.50;;;16.23;;
4422;SDS011;2224;49.814;8.650;2023-03-01T05:33:24;22.67;;;16.60;;
4422;SDS011;2224;49.814;8.650;2023-03-01T05:35:50;22.15;;;16.17;;
4422;SDS011;2224;49.814;8.650;2023-03-01T05:38:19;23.08;;;16.20;;
4422;SDS011;2224;49.814;8.650;2023-03-01T05:40:46;24.65;;;16.67;;
4422;SDS011;2224;49.814;8.650;2023-03-01T05:43:13;22.77;;;15.30;;
4422;SDS011;2224;49.814;8.650;2023-03-01T05:45:40;22.95;;;16.25;;
4422;SDS011;2224;49.814;8.650;2023-03-01T05:48:06;22.33;;;16.50;;
4422;SDS011;2224;49.814;8.650;2023-03-01T05:50:33;21.73;;;16.17;;
4422;SDS011;2224;49.814;8.650;2023-03-01T05:53:00;22.48;;;16.48;;
4422;SDS011;2224;49.814;8.650;2023-03-01T05:55:28;24.25;;;16.83;;
4422;SDS011;2224;49.814;8.650;2023-03-01T05:57:54;27.10;;;17.33;;
4422;SDS011;2224;49.814;8.650;2023-03-01T06:00:19;21.53;;;15.23;;
4422;SDS011;2224;49.814;8.650;2023-03-01T06:02:48;21.52;;;15.82;;
4422;SDS011;2224;49.814;8.650;2023-03-01T06:05:14;23.80;;;15.90;;
4422;SDS011;2224;49.814;8.650;2023-03-01T06:07:40;21.20;;;16.63;;
4422;SDS011;2224;49.814;8.650;2023-03-01T06:10:07;23.53;;;16.20;;
4422;SDS011;2224;49.814;8.650;2023-03-01T06:12:34;27.33;;;17.27;;
4422;SDS011;2224;49.814;8.650;2023-03-01T06:15:01;23.63;;;16.38;;
4422;SDS011;2224;49.814;8.650;2023-03-01T06:17:28;24.57;;;15.57;;
4422;SDS011;2224;49.814;8.650;2023-03-01T06:19:54;22.70;;;15.88;;
4422;SDS011;2224;49.814;8.650;2023-03-01T06:22:20;26.03;;;17.23;;
4422;SDS011;2224;49.814;8.650;2023-03-01T06:24:45;28.90;;;17.03;;
4422;SDS011;2224;49.814;8.650;2023-03-01T06:27:10;24.70;;;16.93;;
4422;SDS011;2224;49.814;8.650;2023-03-01T06:29:36;25.17;;;17.57;;
4422;SDS011;2224;49.814;8.650;2023-03-01T06:32:02;25.37;;;17.30;;
4422;SDS011;2224;49.814;8.650;2023-03-01T06:34:27;29.17;;;19.95;;
4422;SDS011;2224;49.814;8.650;2023-03-01T06:36:53;35.20;;;23.10;;
4422;SDS011;2224;49.814;8.650;2023-03-01T06:39:18;30.83;;;22.17;;
4422;SDS011;2224;49.814;8.650;2023-03-01T06:41:44;34.57;;;19.77;;
4422;SDS011;2224;49.814;8.650;2023-03-01T06:44:09;28.88;;;18.88;;
4422;SDS011;2224;49.814;8.650;2023-03-01T06:46:35;29.23;;;17.10;;
4422;SDS011;2224;49.814;8.650;2023-03-01T06:49:00;26.03;;;18.63;;
4422;SDS011;2224;49.814;8.650;2023-03-01T06:51:25;24.20;;;17.07;;
4422;SDS011;2224;49.814;8.650;2023-03-01T06:53:51;26.80;;;18.00;;
4422;SDS011;2224;49.814;8.650;2023-03-01T06:56:16;27.40;;;17.50;;
4422;SDS011;2224;49.814;8.650;2023-03-01T06:58:41;31.27;;;18.40;;
4422;SDS011;2224;49.814;8.650;2023-03-01T07:01:07;23.47;;;16.40;;
4422;SDS011;2224;49.814;8.650;2023-03-01T07:03:33;22.00;;;15.48;;
4422;SDS011;2224;49.814;8.650;2023-03-01T07:05:59;22.30;;;16.40;;
4422;SDS011;2224;49.814;8.650;2023-03-01T07:08:24;23.27;;;16.73;;
4422;SDS011;2224;49.814;8.650;2023-03-01T07:10:54;21.77;;;15.83;;
4422;SDS011;2224;49.814;8.650;2023-03-01T07:13:20;21.08;;;15.13;;
4422;SDS011;2224;49.814;8.650;2023-03-01T07:15:46;26.03;;;18.13;;
4422;SDS011;2224;49.814;8.650;2023-03-01T07:18:11;22.03;;;15.67;;
4422;SDS011;2224;49.814;8.650;2023-03-01T07:20:36;20.63;;;16.30;;
4422;SDS011;2224;49.814;8.650;2023-03-01T07:23:01;26.50;;;15.87;;
4422;SDS011;2224;49.814;8.650;2023-03-01T07:25:27;28.30;;;18.10;;
4422;SDS011;2224;49.814;8.650;2023-03-01T07:27:52;22.30;;;16.67;;
4422;SDS011;2224;49.814;8.650;2023-03-01T07:30:19;22.43;;;15.27;;
4422;SDS011;2224;49.814;8.650;2023-03-01T07:32:45;23.80;;;16.33;;
4422;SDS011;2224;49.814;8.650;2023-03-01T07:35:10;24.90;;;17.97;;
4422;SDS011;2224;49.814;8.650;2023-03-01T07:37:36;22.23;;;16.80;;
4422;SDS011;2224;49.814;8.650;2023-03-01T07:40:01;20.97;;;14.43;;
4422;SDS011;2224;49.814;8.650;2023-03-01T07:42:27;25.90;;;15.70;;
4422;SDS011;2224;49.814;8.650;2023-03-01T07:44:52;24.47;;;16.10;;
4422;SDS011;2224;49.814;8.650;2023-03-01T07:47:18;24.73;;;17.20;;
4422;SDS011;2224;49.814;8.650;2023-03-01T07:49:44;23.40;;;15.70;;
4422;SDS011;2224;49.814;8.650;2023-03-01T07:52:10;22.10;;;15.63;;
4422;SDS011;2224;49.814;8.650;2023-03-01T07:54:36;24.17;;;16.30;;
4422;SDS011;2224;49.814;8.650;2023-03-01T07:57:02;23.87;;;16.60;;
4422;SDS011;2224;49.814;8.650;2023-03-01T07:59:27;19.90;;;16.07;;
4422;SDS011;2224;49.814;8.650;2023-03-01T08:01:54;21.60;;;16.55;;
4422;SDS011;2224;49.814;8.650;2023-03-01T08:04:23;23.48;;;15.57;;
4422;SDS011;2224;49.814;8.650;2023-03-01T08:06:50;28.05;;;16.75;;
4422;SDS011;2224;49.814;8.650;2023-03-01T08:09:15;27.03;;;16.57;;
4422;SDS011;2224;49.814;8.650;2023-03-01T08:11:41;22.10;;;17.60;;
4422;SDS011;2224;49.814;8.650;2023-03-01T08:14:06;24.90;;;16.33;;
4422;SDS011;2224;49.814;8.650;2023-03-01T08:16:31;23.93;;;17.07;;
4422;SDS011;2224;49.814;8.650;2023-03-01T08:19:02;22.20;;;15.25;;
4422;SDS011;2224;49.814;8.650;2023-03-01T08:21:29;20.27;;;14.05;;
4422;SDS011;2224;49.814;8.650;2023-03-01T08:23:54;27.03;;;16.70;;
4422;SDS011;2224;49.814;8.650;2023-03-01T08:26:20;25.87;;;17.20;;
4422;SDS011;2224;49.814;8.650;2023-03-01T08:28:46;22.92;;;15.70;;
4422;SDS011;2224;49.814;8.650;2023-03-01T08:31:34;21.80;;;15.50;;
4422;SDS011;2224;49.814;8.650;2023-03-01T08:34:00;25.38;;;15.55;;
4422;SDS011;2224;49.814;8.650;2023-03-01T08:36:28;21.90;;;15.48;;
4422;SDS011;2224;49.814;8.650;2023-03-01T08:38:55;25.15;;;15.38;;
4422;SDS011;2224;49.814;8.650;2023-03-01T08:41:21;19.70;;;15.70;;
4422;SDS011;2224;49.814;8.650;2023-03-01T08:43:46;21.60;;;16.30;;
4422;SDS011;2224;49.814;8.650;2023-03-01T08:46:12;21.33;;;16.30;;
4422;SDS011;2224;49.814;8.650;2023-03-01T08:48:38;24.67;;;17.55;;
4422;SDS011;2224;49.814;8.650;2023-03-01T08:51:07;23.53;;;18.20;;
4422;SDS011;2224;49.814;8.650;2023-03-01T08:53:33;24.65;;;17.58;;
4422;SDS011;2224;49.814;8.650;2023-03-01T08:56:02;22.10;;;15.80;;
4422;SDS011;2224;49.814;8.650;2023-03-01T08:58:28;21.88;;;15.85;;
4422;SDS011;2224;49.814;8.650;2023-03-01T09:00:53;27.23;;;15.57;;
4422;SDS011;2224;49.814;8.650;2023-03-01T09:03:21;24.23;;;16.38;;
4422;SDS011;2224;49.814;8.650;2023-03-01T09:05:46;25.30;;;15.77;;
4422;SDS011;2224;49.814;8.650;2023-03-01T09:08:12;24.57;;;15.40;;
4422;SDS011;2224;49.814;8.650;2023-03-01T09:10:38;24.80;;;15.90;;
4422;SDS011;2224;49.814;8.650;2023-03-01T09:13:04;22.00;;;15.30;;
4422;SDS011;2224;49.814;8.650;2023-03-01T09:15:29;21.60;;;15.30;;
4422;SDS011;2224;49.814;8.650;2023-03-01T09:17:54;19.63;;;15.33;;
4422;SDS011;2224;49.814;8.650;2023-03-01T09:20:20;25.40;;;15.27;;
4422;SDS011;2224;49.814;8.650;2023-03-01T09:22:45;24.47;;;16.07;;
4422;SDS011;2224;49.814;8.650;2023-03-01T09:25:10;20.90;;;15.87;;
4422;SDS011;2224;49.814;8.650;2023-03-01T09:27:36;23.90;;;17.70;;
4422;SDS011;2224;49.814;8.650;2023-03-01T09:30:01;23.43;;;17.17;;
4422;SDS011;2224;49.814;8.650;2023-03-01T09:32:27;21.13;;;15.70;;
4422;SDS011;2224;49.814;8.650;2023-03-01T09:34:55;20.58;;;14.85;;
4422;SDS011;2224;49.814;8.650;2023-03-01T09:37:28;21.73;;;16.00;;
4422;SDS011;2224;49.814;8.650;2023-03-01T09:39:53;21.97;;;16.83;;
4422;SDS011;2224;49.814;8.650;2023-03-01T09:42:19;20.83;;;16.20;;
4422;SDS011;2224;49.814;8.650;2023-03-01T09:47:35;22.58;;;15.93;;
4422;SDS011;2224;49.814;8.650;2023-03-01T09:52:46;24.65;;;16.85;;
4422;SDS011;2224;49.814;8.650;2023-03-01T09:55:27;23.05;;;16.60;;
4422;SDS011;2224;49.814;8.650;2023-03-01T09:57:59;25.63;;;17.17;;
4422;SDS011;2224;49.814;8.650;2023-03-01T10:00:42;21.90;;;15.00;;
4422;SDS011;2224;49.814;8.650;2023-03-01T10:05:59;23.77;;;16.83;;
4422;SDS011;2224;49.814;8.650;2023-03-01T10:08:55;21.73;;;16.65;;
4422;SDS011;2224;49.814;8.650;2023-03-01T10:11:31;23.63;;;16.77;;
4422;SDS011;2224;49.814;8.650;2023-03-01T10:14:03;20.58;;;14.18;;
4422;SDS011;2224;49.814;8.650;2023-03-01T10:16:41;20.02;;;14.73;;
4422;SDS011;2224;49.814;8.650;2023-03-01T10:19:23;22.88;;;15.95;;
4422;SDS011;2224;49.814;8.650;2023-03-01T10:21:52;23.67;;;17.20;;
4422;SDS011;2224;49.814;8.650;2023-03-01T10:24:18;21.50;;;16.13;;
4422;SDS011;2224;49.814;8.650;2023-03-01T10:29:37;25.98;;;17.25;;
4422;SDS011;2224;49.814;8.650;2023-03-01T10:32:06;23.92;;;18.60;;
4422;SDS011;2224;49.814;8.650;2023-03-01T10:34:33;24.50;;;18.07;;
4422;SDS011;2224;49.814;8.650;2023-03-01T10:37:10;23.33;;;17.52;;
4422;SDS011;2224;49.814;8.650;2023-03-01T10:39:37;25.77;;;17.10;;
4422;SDS011;2224;49.814;8.650;2023-03-01T10:42:22;30.97;;;16.50;;
4422;SDS011;2224;49.814;8.650;2023-03-01T10:44:51;24.42;;;18.20;;
4422;SDS011;2224;49.814;8.650;2023-03-01T10:47:23;23.33;;;16.90;;
4422;SDS011;2224;49.814;8.650;2023-03-01T10:49:58;29.27;;;17.40;;
4422;SDS011;2224;49.814;8.650;2023-03-01T10:52:29;24.42;;;17.90;;
4422;SDS011;2224;49.814;8.650;2023-03-01T10:55:02;26.63;;;17.80;;
4422;SDS011;2224;49.814;8.650;2023-03-01T10:57:34;24.63;;;17.67;;
4422;SDS011;2224;49.814;8.650;2023-03-01T11:00:18;23.33;;;17.07;;
4422;SDS011;2224;49.814;8.650;2023-03-01T11:02:49;24.20;;;16.50;;
4422;SDS011;2224;49.814;8.650;2023-03-01T11:05:36;21.27;;;16.50;;
4422;SDS011;2224;49.814;8.650;2023-03-01T11:08:01;23.93;;;17.00;;
4422;SDS011;2224;49.814;8.650;2023-03-01T11:10:32;23.57;;;15.50;;
4422;SDS011;2224;49.814;8.650;2023-03-01T11:13:13;24.97;;;16.87;;
4422;SDS011;2224;49.814;8.650;2023-03-01T11:15:40;22.13;;;15.20;;
4422;SDS011;2224;49.814;8.650;2023-03-01T11:18:15;19.40;;;14.67;;
4422;SDS011;2224;49.814;8.650;2023-03-01T11:20:44;21.20;;;15.07;;
4422;SDS011;2224;49.814;8.650;2023-03-01T11:23:10;20.27;;;15.00;;
4422;SDS011;2224;49.814;8.650;2023-03-01T11:25:42;19.63;;;15.70;;
4422;SDS011;2224;49.814;8.650;2023-03-01T11:28:19;21.67;;;14.90;;
4422;SDS011;2224;49.814;8.650;2023-03-01T11:39:15;20.10;;;14.40;;
4422;SDS011;2224;49.814;8.650;2023-03-01T11:41:46;19.53;;;14.20;;
4422;SDS011;2224;49.814;8.650;2023-03-01T11:44:14;18.00;;;13.50;;
4422;SDS011;2224;49.814;8.650;2023-03-01T11:46:48;16.40;;;12.77;;
4422;SDS011;2224;49.814;8.650;2023-03-01T11:52:29;16.67;;;12.77;;
4422;SDS011;2224;49.814;8.650;2023-03-01T11:57:58;16.60;;;11.97;;
4422;SDS011;2224;49.814;8.650;2023-03-01T12:09:19;20.17;;;12.17;;
4422;SDS011;2224;49.814;8.650;2023-03-01T12:11:57;18.00;;;12.47;;
4422;SDS011;2224;49.814;8.650;2023-03-01T12:17:29;18.00;;;12.63;;
4422;SDS011;2224;49.814;8.650;2023-03-01T12:20:07;15.07;;;11.43;;
4422;SDS011;2224;49.814;8.650;2023-03-01T12:22:57;17.60;;;12.83;;
4422;SDS011;2224;49.814;8.650;2023-03-01T12:25:41;19.57;;;13.80;;
4422;SDS011;2224;49.814;8.650;2023-03-01T12:28:15;16.30;;;13.13;;
4422;SDS011;2224;49.814;8.650;2023-03-01T12:33:17;18.50;;;14.03;;
4422;SDS011;2224;49.814;8.650;2023-03-01T12:38:41;21.63;;;13.70;;
4422;SDS011;2224;49.814;8.650;2023-03-01T12:41:31;14.30;;;11.60;;
4422;SDS011;2224;49.814;8.650;2023-03-01T12:44:15;15.27;;;12.70;;
4422;SDS011;2224;49.814;8.650;2023-03-01T12:46:54;16.37;;;12.67;;
4422;SDS011;2224;49.814;8.650;2023-03-01T12:49:38;13.73;;;12.10;;
4422;SDS011;2224;49.814;8.650;2023-03-01T12:52:13;15.43;;;12.43;;
4422;SDS011;2224;49.814;8.650;2023-03-01T12:54:41;14.60;;;11.80;;
4422;SDS011;2224;49.814;8.650;2023-03-01T12:57:30;13.80;;;12.30;;
4422;SDS011;2224;49.814;8.650;2023-03-01T13:02:46;15.63;;;12.53;;
4422;SDS011;2224;49.814;8.650;2023-03-01T13:10:36;15.07;;;12.50;;
4422;SDS011;2224;49.814;8.650;2023-03-01T13:13:19;14.70;;;12.07;;
4422;SDS011;2224;49.814;8.650;2023-03-01T13:15:45;14.60;;;12.10;;
4422;SDS011;2224;49.814;8.650;2023-03-01T13:41:48;15.53;;;12.87;;
4422;SDS011;2224;49.814;8.650;2023-03-01T13:46:52;13.23;;;11.83;;
4422;SDS011;2224;49.814;8.650;2023-03-01T13:49:23;13.20;;;11.80;;
4422;SDS011;2224;49.814;8.650;2023-03-01T13:51:51;14.40;;;11.70;;
4422;SDS011;2224;49.814;8.650;2023-03-01T13:54:24;13.30;;;11.90;;
4422;SDS011;2224;49.814;8.650;2023-03-01T13:56:51;12.70;;;11.50;;
4422;SDS011;2224;49.814;8.650;2023-03-01T13:59:19;13.57;;;10.90;;
4422;SDS011;2224;49.814;8.650;2023-03-01T14:01:52;13.03;;;11.67;;
4422;SDS011;2224;49.814;8.650;2023-03-01T14:04:20;13.37;;;12.00;;
4422;SDS011;2224;49.814;8.650;2023-03-01T14:06:48;13.33;;;11.30;;
4422;SDS011;2224;49.814;8.650;2023-03-01T14:09:21;14.20;;;12.10;;
4422;SDS011;2224;49.814;8.650;2023-03-01T14:12:02;12.40;;;10.87;;
4422;SDS011;2224;49.814;8.650;2023-03-01T14:14:40;12.13;;;10.93;;
4422;SDS011;2224;49.814;8.650;2023-03-01T14:20:11;13.60;;;11.00;;
4422;SDS011;2224;49.814;8.650;2023-03-01T14:22:48;12.63;;;11.33;;
4422;SDS011;2224;49.814;8.650;2023-03-01T14:25:26;11.63;;;10.43;;
4422;SDS011;2224;49.814;8.650;2023-03-01T14:27:57;12.33;;;11.00;;
4422;SDS011;2224;49.814;8.650;2023-03-01T14:30:30;13.57;;;11.70;;
4422;SDS011;2224;49.814;8.650;2023-03-01T14:33:02;11.27;;;10.00;;
4422;SDS011;2224;49.814;8.650;2023-03-01T14:35:31;12.17;;;10.87;;
4422;SDS011;2224;49.814;8.650;2023-03-01T14:37:58;12.00;;;10.70;;
4422;SDS011;2224;49.814;8.650;2023-03-01T14:40:31;12.90;;;10.50;;
4422;SDS011;2224;49.814;8.650;2023-03-01T14:42:59;12.20;;;10.90;;
4422;SDS011;2224;49.814;8.650;2023-03-01T14:45:26;11.43;;;10.23;;
4422;SDS011;2224;49.814;8.650;2023-03-01T14:47:53;11.40;;;10.23;;
4422;SDS011;2224;49.814;8.650;2023-03-01T14:50:23;12.00;;;10.80;;
4422;SDS011;2224;49.814;8.650;2023-03-01T14:52:57;12.67;;;11.40;;
4422;SDS011;2224;49.814;8.650;2023-03-01T14:55:31;11.77;;;10.63;;
4422;SDS011;2224;49.814;8.650;2023-03-01T14:58:03;11.50;;;10.30;;
4422;SDS011;2224;49.814;8.650;2023-03-01T15:00:30;12.20;;;10.93;;
4422;SDS011;2224;49.814;8.650;2023-03-01T15:02:58;13.40;;;11.37;;
4422;SDS011;2224;49.814;8.650;2023-03-01T15:05:29;11.80;;;10.63;;
4422;SDS011;2224;49.814;8.650;2023-03-01T15:07:59;12.30;;;11.10;;
4422;SDS011;2224;49.814;8.650;2023-03-01T15:10:27;13.10;;;11.10;;
4422;SDS011;2224;49.814;8.650;2023-03-01T15:12:53;13.67;;;12.27;;
4422;SDS011;2224;49.814;8.650;2023-03-01T15:15:30;13.50;;;11.93;;
4422;SDS011;2224;49.814;8.650;2023-03-01T15:17:59;13.30;;;11.70;;
4422;SDS011;2224;49.814;8.650;2023-03-01T15:20:26;13.23;;;11.57;;
4422;SDS011;2224;49.814;8.650;2023-03-01T15:22:54;14.37;;;12.50;;
4422;SDS011;2224;49.814;8.650;2023-03-01T15:25:21;14.53;;;11.80;;
4422;SDS011;2224;49.814;8.650;2023-03-01T15:27:50;15.77;;;13.20;;
4422;SDS011;2224;49.814;8.650;2023-03-01T15:30:31;13.57;;;12.17;;
4422;SDS011;2224;49.814;8.650;2023-03-01T15:35:51;14.43;;;11.60;;
4422;SDS011;2224;49.814;8.650;2023-03-01T15:38:31;15.00;;;11.13;;
4422;SDS011;2224;49.814;8.650;2023-03-01T15:41:05;18.10;;;12.13;;
4422;SDS011;2224;49.814;8.650;2023-03-01T15:43:47;15.30;;;11.83;;
4422;SDS011;2224;49.814;8.650;2023-03-01T15:48:53;15.47;;;11.60;;
4422;SDS011;2224;49.814;8.650;2023-03-01T15:51:54;14.40;;;12.50;;
4422;SDS011;2224;49.814;8.650;2023-03-01T15:54:20;12.77;;;10.93;;
4422;SDS011;2224;49.814;8.650;2023-03-01T15:56:47;14.10;;;10.87;;
4422;SDS011;2224;49.814;8.650;2023-03-01T15:59:12;14.93;;;11.93;;
4422;SDS011;2224;49.814;8.650;2023-03-01T16:01:39;13.70;;;10.87;;
4422;SDS011;2224;49.814;8.650;2023-03-01T16:04:05;16.90;;;11.93;;
4422;SDS011;2224;49.814;8.650;2023-03-01T16:06:30;15.23;;;12.53;;
4422;SDS011;2224;49.814;8.650;2023-03-01T16:08:55;16.40;;;12.43;;
4422;SDS011;2224;49.814;8.650;2023-03-01T16:11:21;16.57;;;12.40;;
4422;SDS011;2224;49.814;8.650;2023-03-01T16:13:47;15.60;;;12.90;;
4422;SDS011;2224;49.814;8.650;2023-03-01T16:16:13;15.00;;;11.37;;
4422;SDS011;2224;49.814;8.650;2023-03-01T16:18:41;16.63;;;12.70;;
4422;SDS011;2224;49.814;8.650;2023-03-01T16:21:10;16.50;;;11.90;;
4422;SDS011;2224;49.814;8.650;2023-03-01T16:23:37;12.83;;;10.17;;
4422;SDS011;2224;49.814;8.650;2023-03-01T16:26:02;14.60;;;11.27;;